KMFI

Marshfield Municipal Airport

Marshfield, Wisconsin, USA
METAR KMFI 240154Z AUTO 17004KT 10SM CLR 21/17 A3013 RMK AO2 SLP198 T02110167 TSNO
Observed Flight Rules
May-24 @ 01:54 UTC (13 minutes ago) Visual Flight Rules
Wind Visibility Clouds
170° at 4 knots 10 miles
  • Clear skies
Temperatures Readings
Current 21°C / 70°F
Dewpoint 17°C / 63°F
Humidity 78%
Altimeter 30.13" Hg
Pressure 1019.8 hPa
Elevation 389
METAR KMFI 240154Z AUTO 17004KT 10SM CLR 21/17 A3013 RMK AO2 SLP198 T02110167 TSNO
Observed Flight Rules
May-24 @ 01:54 UTC
(13 minutes ago)
VFR
Wind Visibility
170° at 4 knots 10 miles
Clouds
  • Clear skies
Temperature Dewpoint
21°C / 70°F 17°C / 63°F
Humidity Altimeter Pressure
78% 30.13" Hg 1019.8 hPa